createdAt,value
2019-05-20T00:00:23.508Z,14.88
2019-05-20T00:02:52.953Z,14.90
2019-05-20T00:05:22.404Z,14.92
2019-05-20T00:07:51.865Z,14.93
2019-05-20T00:10:21.600Z,14.92
2019-05-20T00:12:51.048Z,14.87
2019-05-20T00:15:20.766Z,14.87
2019-05-20T00:17:50.213Z,14.88
2019-05-20T00:20:19.646Z,14.96
2019-05-20T00:22:49.368Z,14.97
2019-05-20T00:25:19.079Z,14.99
2019-05-20T00:27:48.526Z,14.82
2019-05-20T00:30:18.298Z,14.80
2019-05-20T00:32:47.751Z,14.85
2019-05-20T00:35:17.501Z,14.84
2019-05-20T00:37:46.933Z,14.79
2019-05-20T00:40:16.522Z,14.86
2019-05-20T00:42:45.961Z,14.84
2019-05-20T00:45:17.712Z,14.81
2019-05-20T00:47:47.481Z,14.76
2019-05-20T00:50:17.309Z,14.76
2019-05-20T00:52:46.734Z,14.71
2019-05-20T00:55:26.777Z,14.74
2019-05-20T00:57:56.211Z,14.68
2019-05-20T01:00:26.108Z,14.71
2019-05-20T01:02:57.169Z,14.67
2019-05-20T01:05:26.922Z,14.71
2019-05-20T01:07:56.630Z,14.66
2019-05-20T01:10:26.079Z,14.72
2019-05-20T01:12:55.521Z,14.68
2019-05-20T01:15:25.031Z,14.68
2019-05-20T01:17:54.472Z,14.75
2019-05-20T01:20:24.260Z,14.68
2019-05-20T01:22:53.693Z,14.68
2019-05-20T01:25:23.461Z,14.66
2019-05-20T01:27:52.897Z,14.64
2019-05-20T01:30:23.815Z,14.69
2019-05-20T01:32:53.245Z,14.67
2019-05-20T01:35:22.694Z,14.66
2019-05-20T01:37:52.430Z,14.64
2019-05-20T01:40:22.227Z,14.59
2019-05-20T01:42:51.670Z,14.64
2019-05-20T01:45:21.118Z,14.63
2019-05-20T01:47:50.842Z,14.62
2019-05-20T01:50:20.303Z,14.59
2019-05-20T01:52:49.748Z,14.57
2019-05-20T01:55:19.473Z,14.51
2019-05-20T01:57:49.177Z,14.57
2019-05-20T02:00:20.384Z,14.52
2019-05-20T02:02:50.338Z,14.53
2019-05-20T02:05:19.786Z,14.56
2019-05-20T02:07:49.218Z,14.57
2019-05-20T02:10:19.078Z,14.62
2019-05-20T02:12:48.859Z,14.61
2019-05-20T02:15:20.011Z,14.53
2019-05-20T02:17:49.451Z,14.48
2019-05-20T02:20:18.899Z,14.48
2019-05-20T02:22:48.586Z,14.45
2019-05-20T02:25:18.838Z,14.48
2019-05-20T02:27:48.273Z,14.51
2019-05-20T02:30:17.720Z,14.53
2019-05-20T02:32:47.457Z,14.52
2019-05-20T02:35:16.901Z,14.55
2019-05-20T02:37:46.338Z,14.45
2019-05-20T02:40:16.586Z,14.52
2019-05-20T02:42:46.272Z,14.59
2019-05-20T02:45:16.202Z,14.52
2019-05-20T02:47:45.914Z,14.50
2019-05-20T02:50:15.438Z,14.48
2019-05-20T02:52:44.937Z,14.42
2019-05-20T02:55:14.739Z,14.39
2019-05-20T02:57:44.178Z,14.47
2019-05-20T03:00:13.858Z,14.42
2019-05-20T03:02:43.297Z,14.49
2019-05-20T03:05:12.990Z,14.50
2019-05-20T03:07:42.429Z,14.53
2019-05-20T03:10:12.014Z,14.45
2019-05-20T03:12:41.446Z,14.50
2019-05-20T03:15:11.427Z,14.54
2019-05-20T03:17:41.187Z,14.57
2019-05-20T03:20:10.781Z,14.58
2019-05-20T03:22:40.492Z,14.59
2019-05-20T03:25:10.154Z,14.54
2019-05-20T03:27:39.811Z,14.51
2019-05-20T03:30:11.106Z,14.49
2019-05-20T03:32:40.531Z,14.51
2019-05-20T03:35:10.924Z,14.59
2019-05-20T03:37:40.603Z,14.58
2019-05-20T03:40:11.138Z,14.37
2019-05-20T03:42:40.582Z,14.42
2019-05-20T03:45:10.862Z,14.42
2019-05-20T03:47:40.568Z,14.41
2019-05-20T03:50:11.260Z,14.38
2019-05-20T03:52:40.780Z,14.31
2019-05-20T03:55:11.210Z,14.28
2019-05-20T03:57:40.660Z,14.34
2019-05-20T04:00:35.740Z,14.31
2019-05-20T04:03:05.445Z,14.25
2019-05-20T04:05:35.162Z,14.30
2019-05-20T04:08:04.646Z,14.34
2019-05-20T04:10:34.039Z,14.30
2019-05-20T04:13:03.501Z,14.32
2019-05-20T04:15:33.275Z,14.30
2019-05-20T04:18:02.983Z,14.41
2019-05-20T04:20:32.660Z,14.41
2019-05-20T04:23:02.124Z,14.40
2019-05-20T04:25:31.887Z,14.45
2019-05-20T04:28:01.325Z,14.52
2019-05-20T04:30:31.019Z,14.48
2019-05-20T04:33:00.473Z,14.51
2019-05-20T04:35:29.901Z,14.53
2019-05-20T04:37:59.427Z,14.44
2019-05-20T04:40:28.875Z,14.49
2019-05-20T04:42:58.309Z,14.53
2019-05-20T04:45:27.744Z,14.54
2019-05-20T04:47:57.444Z,14.51
2019-05-20T04:50:27.161Z,14.52
2019-05-20T04:52:56.604Z,14.48
2019-05-20T04:55:26.038Z,14.48
2019-05-20T04:57:55.768Z,14.50
2019-05-20T05:00:54.799Z,14.49
2019-05-20T05:03:24.720Z,14.47
2019-05-20T05:05:54.299Z,14.51
2019-05-20T05:08:24.314Z,14.51
2019-05-20T05:10:53.979Z,14.57
2019-05-20T05:13:24.834Z,14.55
2019-05-20T05:15:54.671Z,14.35
2019-05-20T05:18:24.192Z,14.40
2019-05-20T05:20:53.695Z,14.43
2019-05-20T05:23:23.385Z,14.47
2019-05-20T05:25:53.496Z,14.42
2019-05-20T05:28:23.006Z,14.51
2019-05-20T05:30:52.616Z,14.54
2019-05-20T05:33:22.317Z,14.52
2019-05-20T05:35:53.730Z,14.58
2019-05-20T05:38:23.600Z,14.54
2019-05-20T05:40:53.390Z,14.59
2019-05-20T05:43:23.093Z,14.56
2019-05-20T05:45:52.531Z,14.61
2019-05-20T05:48:22.052Z,14.65
2019-05-20T05:50:51.814Z,14.56
2019-05-20T05:53:21.323Z,14.46
2019-05-20T05:55:51.026Z,14.56
2019-05-20T05:58:20.474Z,14.56
2019-05-20T06:00:50.243Z,14.56
2019-05-20T06:03:19.707Z,14.60
2019-05-20T06:05:49.463Z,14.64
2019-05-20T06:08:19.045Z,14.69
2019-05-20T06:10:48.522Z,14.66
2019-05-20T06:13:17.967Z,14.67
2019-05-20T06:15:47.409Z,14.72
2019-05-20T06:18:17.188Z,14.78
2019-05-20T06:20:46.625Z,14.78
2019-05-20T06:23:16.324Z,14.80
2019-05-20T06:25:46.103Z,14.78
2019-05-20T06:28:15.788Z,14.77
2019-05-20T06:30:46.622Z,14.78
2019-05-20T06:33:16.311Z,14.82
2019-05-20T06:35:45.811Z,14.85
2019-05-20T06:38:16.905Z,14.86
2019-05-20T06:40:46.341Z,14.87
2019-05-20T06:43:15.784Z,14.90
2019-05-20T06:45:45.520Z,14.86
2019-05-20T06:48:14.970Z,14.86
2019-05-20T06:50:44.425Z,14.84
2019-05-20T06:53:13.880Z,14.85
2019-05-20T06:55:43.321Z,14.85
2019-05-20T06:58:13.051Z,14.91
2019-05-20T07:00:43.338Z,14.91
2019-05-20T07:03:13.034Z,14.88
2019-05-20T07:05:42.475Z,14.92
2019-05-20T07:08:11.908Z,14.93
2019-05-20T07:10:41.350Z,15.01
2019-05-20T07:13:11.541Z,14.97
2019-05-20T07:15:40.988Z,14.91
2019-05-20T07:18:10.738Z,14.86
2019-05-20T07:20:40.528Z,14.86
2019-05-20T07:23:09.972Z,14.90
2019-05-20T07:25:39.860Z,14.88
2019-05-20T07:28:09.294Z,14.93
2019-05-20T07:30:38.724Z,14.96
2019-05-20T07:33:08.168Z,15.03
2019-05-20T07:35:37.617Z,15.06
2019-05-20T07:38:07.062Z,15.02
2019-05-20T07:40:36.507Z,14.89
2019-05-20T07:43:06.531Z,14.90
2019-05-20T07:45:37.039Z,14.98
2019-05-20T07:48:07.865Z,15.02
2019-05-20T07:50:40.731Z,14.90
2019-05-20T07:53:12.313Z,14.89
2019-05-20T07:55:58.879Z,14.93
2019-05-20T07:58:33.572Z,14.94
2019-05-20T08:01:02.394Z,14.84
2019-05-20T08:03:31.900Z,14.89
2019-05-20T08:06:01.602Z,14.88
2019-05-20T08:08:31.035Z,14.78
2019-05-20T08:11:00.497Z,14.78
2019-05-20T08:13:29.939Z,14.76
2019-05-20T08:15:59.739Z,14.79
2019-05-20T08:18:29.433Z,14.82
2019-05-20T08:20:59.021Z,14.77
2019-05-20T08:23:29.047Z,14.81
2019-05-20T08:25:58.503Z,14.80
2019-05-20T08:28:28.310Z,14.88
2019-05-20T08:30:58.009Z,14.85
2019-05-20T08:33:27.491Z,14.89
2019-05-20T08:35:56.929Z,14.96
2019-05-20T08:38:26.385Z,14.91
2019-05-20T08:40:55.822Z,14.97
2019-05-20T08:43:25.261Z,14.92
2019-05-20T08:45:55.162Z,14.89
2019-05-20T08:48:24.619Z,14.94
2019-05-20T08:50:54.374Z,15.00
2019-05-20T08:53:24.276Z,14.95
2019-05-20T08:55:53.742Z,15.03
2019-05-20T08:58:23.166Z,14.97
2019-05-20T09:00:53.003Z,14.95
2019-05-20T09:03:22.441Z,14.91
2019-05-20T09:05:52.062Z,14.92
2019-05-20T09:08:21.815Z,14.91
2019-05-20T09:10:51.327Z,14.95
2019-05-20T09:13:20.792Z,14.93
2019-05-20T09:15:50.266Z,15.02
2019-05-20T09:18:19.765Z,15.03
2019-05-20T09:20:49.540Z,14.96
2019-05-20T09:23:18.974Z,15.06
2019-05-20T09:25:48.769Z,15.05
2019-05-20T09:28:18.234Z,15.18
2019-05-20T09:30:47.920Z,15.24
2019-05-20T09:33:18.197Z,15.24
2019-05-20T09:35:48.010Z,15.24
2019-05-20T09:38:20.935Z,15.29
2019-05-20T09:40:50.174Z,15.28
2019-05-20T09:43:19.610Z,15.22
2019-05-20T09:46:05.689Z,15.21
2019-05-20T09:48:24.688Z,15.17
2019-05-20T09:50:52.795Z,15.24
2019-05-20T09:53:23.134Z,15.10
2019-05-20T09:55:52.694Z,15.18
2019-05-20T09:58:22.454Z,15.24
2019-05-20T10:00:51.919Z,15.33
2019-05-20T10:03:21.660Z,15.19
2019-05-20T10:05:51.482Z,15.29
2019-05-20T10:08:36.359Z,15.27
2019-05-20T10:10:52.139Z,15.30
2019-05-20T10:13:21.578Z,15.25
2019-05-20T10:15:51.120Z,15.18
2019-05-20T10:18:36.039Z,15.18
2019-05-20T10:20:51.875Z,15.25
2019-05-20T10:23:21.319Z,15.22
2019-05-20T10:25:51.009Z,15.19
2019-05-20T10:28:20.812Z,15.05
2019-05-20T10:30:50.604Z,15.03
2019-05-20T10:33:20.419Z,14.95
2019-05-20T10:35:50.134Z,15.04
2019-05-20T10:38:19.955Z,15.08
2019-05-20T10:40:49.671Z,15.16
2019-05-20T10:43:19.125Z,15.15
2019-05-20T10:45:48.570Z,14.99
2019-05-20T10:48:18.365Z,14.98
2019-05-20T10:50:48.079Z,15.00
2019-05-20T10:53:17.528Z,15.12
2019-05-20T10:55:47.138Z,15.08
2019-05-20T10:58:16.582Z,15.09
2019-05-20T11:01:01.819Z,14.96
2019-05-20T11:03:17.216Z,14.88
2019-05-20T11:05:46.943Z,14.86
2019-05-20T11:08:16.655Z,14.88
2019-05-20T11:10:46.344Z,14.88
2019-05-20T11:13:16.570Z,14.91
2019-05-20T11:15:46.288Z,14.89
2019-05-20T11:18:16.107Z,14.94
2019-05-20T11:20:45.544Z,14.88
2019-05-20T11:23:15.316Z,14.91
2019-05-20T11:25:45.027Z,14.90
2019-05-20T11:28:14.477Z,14.95
2019-05-20T11:30:44.355Z,15.06
2019-05-20T11:33:13.840Z,15.15
2019-05-20T11:35:43.667Z,15.05
2019-05-20T11:38:13.293Z,15.12
2019-05-20T11:40:43.072Z,15.02
2019-05-20T11:43:12.525Z,15.01
2019-05-20T11:45:42.041Z,15.07
2019-05-20T11:48:11.507Z,15.03
2019-05-20T11:50:41.807Z,14.99
2019-05-20T11:53:11.524Z,14.93
2019-05-20T11:55:40.964Z,14.85
2019-05-20T11:58:15.646Z,14.87
2019-05-20T12:00:41.576Z,14.90
2019-05-20T12:03:11.026Z,14.96
2019-05-20T12:05:40.808Z,14.90
2019-05-20T12:08:10.323Z,14.97
2019-05-20T12:10:39.777Z,14.94
2019-05-20T12:13:09.226Z,14.92
2019-05-20T12:15:38.988Z,14.96
2019-05-20T12:18:08.450Z,14.94
2019-05-20T12:20:38.216Z,14.94
2019-05-20T12:23:07.921Z,15.02
2019-05-20T12:25:37.370Z,15.03
2019-05-20T12:28:06.828Z,15.03
2019-05-20T12:30:36.297Z,15.02
2019-05-20T12:33:18.387Z,15.06
2019-05-20T12:35:36.992Z,15.07
2019-05-20T12:38:06.694Z,15.07
2019-05-20T12:40:36.395Z,15.09
2019-05-20T12:43:05.853Z,15.07
2019-05-20T12:45:35.380Z,15.12
2019-05-20T12:48:05.321Z,15.20
2019-05-20T12:50:34.761Z,15.16
2019-05-20T12:53:04.197Z,15.28
2019-05-20T12:55:33.645Z,15.33
2019-05-20T12:58:03.100Z,15.39
2019-05-20T13:00:32.781Z,15.36
2019-05-20T13:03:02.232Z,15.36
2019-05-20T13:05:32.246Z,15.35
2019-05-20T13:08:01.692Z,15.33
2019-05-20T13:10:32.541Z,15.40
2019-05-20T13:13:02.103Z,15.41
2019-05-20T13:15:31.618Z,15.41
2019-05-20T13:18:01.026Z,15.53
2019-05-20T13:20:30.468Z,15.48
2019-05-20T13:23:00.155Z,15.48
2019-05-20T13:25:29.610Z,15.57
2019-05-20T13:27:59.044Z,15.51
2019-05-20T13:30:28.740Z,15.66
2019-05-20T13:32:58.183Z,15.56
2019-05-20T13:35:27.964Z,15.52
2019-05-20T13:37:57.663Z,15.58
2019-05-20T13:40:42.923Z,15.61
2019-05-20T13:42:58.283Z,15.68
2019-05-20T13:45:27.725Z,15.64
2019-05-20T13:47:57.163Z,15.64
2019-05-20T13:50:26.615Z,15.64
2019-05-20T13:52:56.053Z,15.81
2019-05-20T13:55:25.518Z,15.82
2019-05-20T13:57:54.938Z,15.78
2019-05-20T14:00:24.662Z,15.76
2019-05-20T14:02:54.444Z,15.85
2019-05-20T14:05:23.894Z,15.74
2019-05-20T14:07:53.662Z,15.77
2019-05-20T14:10:23.379Z,15.80
2019-05-20T14:12:52.810Z,15.91
2019-05-20T14:15:22.271Z,15.94
2019-05-20T14:17:51.783Z,15.93
2019-05-20T14:20:21.425Z,15.97
2019-05-20T14:22:50.899Z,15.93
2019-05-20T14:25:20.709Z,15.91
2019-05-20T14:27:50.144Z,15.90
2019-05-20T14:30:20.329Z,15.87
2019-05-20T14:32:50.041Z,15.90
2019-05-20T14:35:19.747Z,15.90
2019-05-20T14:37:49.451Z,15.92
2019-05-20T14:40:18.978Z,15.88
2019-05-20T14:42:48.767Z,15.87
2019-05-20T14:45:18.297Z,15.97
2019-05-20T14:47:48.092Z,15.91
2019-05-20T14:50:17.911Z,15.87
2019-05-20T14:52:47.418Z,15.88
2019-05-20T14:55:17.333Z,15.93
2019-05-20T14:57:46.777Z,15.93
2019-05-20T15:00:17.229Z,15.94
2019-05-20T15:02:46.682Z,15.95
2019-05-20T15:05:16.424Z,16.07
2019-05-20T15:07:45.931Z,16.16
2019-05-20T15:10:15.549Z,16.16
2019-05-20T15:12:44.993Z,16.13
2019-05-20T15:15:16.010Z,16.18
2019-05-20T15:17:45.453Z,16.16
2019-05-20T15:20:16.039Z,16.08
2019-05-20T15:22:45.495Z,16.21
2019-05-20T15:25:15.353Z,16.22
2019-05-20T15:27:45.067Z,16.13
2019-05-20T15:30:15.184Z,16.08
2019-05-20T15:32:44.652Z,16.09
2019-05-20T15:35:14.702Z,16.00
2019-05-20T15:37:44.152Z,16.07
2019-05-20T15:40:13.788Z,16.01
2019-05-20T15:42:43.901Z,16.00
2019-05-20T15:45:13.925Z,15.99
2019-05-20T15:47:43.359Z,15.99
2019-05-20T15:50:13.241Z,15.94
2019-05-20T15:52:43.071Z,15.94
2019-05-20T15:55:12.785Z,15.92
2019-05-20T15:57:42.210Z,15.88
2019-05-20T16:00:12.490Z,15.95
2019-05-20T16:02:41.941Z,15.96
2019-05-20T16:05:11.771Z,15.99
2019-05-20T16:07:41.552Z,16.02
2019-05-20T16:10:11.966Z,15.94
2019-05-20T16:12:41.421Z,15.95
2019-05-20T16:15:11.828Z,15.94
2019-05-20T16:17:41.253Z,16.01
2019-05-20T16:20:11.109Z,15.94
2019-05-20T16:22:40.618Z,15.93
2019-05-20T16:25:10.417Z,15.91
2019-05-20T16:27:40.314Z,15.96
2019-05-20T16:30:11.762Z,15.97
2019-05-20T16:32:41.275Z,16.00
2019-05-20T16:35:10.880Z,15.92
2019-05-20T16:37:40.310Z,15.88
2019-05-20T16:40:12.060Z,15.89
2019-05-20T16:42:41.930Z,15.86
2019-05-20T16:45:13.053Z,15.80
2019-05-20T16:47:42.820Z,15.90
2019-05-20T16:50:12.495Z,15.81
2019-05-20T16:52:42.244Z,15.87
2019-05-20T16:55:11.830Z,15.87
2019-05-20T16:57:41.560Z,15.89
2019-05-20T17:00:30.149Z,15.83
2019-05-20T17:02:43.740Z,15.80
2019-05-20T17:05:13.252Z,15.83
2019-05-20T17:07:43.118Z,15.81
2019-05-20T17:10:12.970Z,15.80
2019-05-20T17:12:42.678Z,15.60
2019-05-20T17:15:14.231Z,15.68
2019-05-20T17:17:43.945Z,15.78
2019-05-20T17:20:14.058Z,15.61
2019-05-20T17:22:43.496Z,15.53
2019-05-20T17:25:13.374Z,15.46
2019-05-20T17:27:43.062Z,15.51
2019-05-20T17:30:13.068Z,15.53
2019-05-20T17:32:42.533Z,15.46
2019-05-20T17:35:12.514Z,15.40
2019-05-20T17:37:41.962Z,15.37
2019-05-20T17:40:11.941Z,15.49
2019-05-20T17:42:41.459Z,15.53
2019-05-20T17:45:13.105Z,15.50
2019-05-20T17:47:42.556Z,15.38
2019-05-20T17:50:12.636Z,15.60
2019-05-20T17:52:42.075Z,15.49
2019-05-20T17:55:12.956Z,15.49
2019-05-20T17:57:42.402Z,15.47
2019-05-20T18:00:17.239Z,15.46
2019-05-20T18:02:46.663Z,15.49
2019-05-20T18:05:16.513Z,15.34
2019-05-20T18:07:45.966Z,15.43
2019-05-20T18:10:18.067Z,15.34
2019-05-20T18:12:48.090Z,15.34
2019-05-20T18:15:18.828Z,15.20
2019-05-20T18:17:48.535Z,15.17
2019-05-20T18:20:18.545Z,15.15
2019-05-20T18:22:47.986Z,15.12
2019-05-20T18:25:17.573Z,15.22
2019-05-20T18:27:47.079Z,15.17
2019-05-20T18:30:16.824Z,15.13
2019-05-20T18:32:46.259Z,15.10
2019-05-20T18:35:15.834Z,15.14
2019-05-20T18:37:45.287Z,15.14
2019-05-20T18:40:15.289Z,15.19
2019-05-20T18:42:44.834Z,15.25
2019-05-20T18:45:14.713Z,15.23
2019-05-20T18:47:44.623Z,15.28
2019-05-20T18:50:15.536Z,15.25
2019-05-20T18:52:45.275Z,15.27
2019-05-20T18:55:15.203Z,15.17
2019-05-20T18:57:44.633Z,15.17
2019-05-20T19:00:15.034Z,15.14
2019-05-20T19:02:44.476Z,15.15
2019-05-20T19:05:14.277Z,15.11
2019-05-20T19:07:43.873Z,14.89
2019-05-20T19:10:13.417Z,14.84
2019-05-20T19:12:42.862Z,14.90
2019-05-20T19:15:13.036Z,14.97
2019-05-20T19:17:42.446Z,14.88
2019-05-20T19:20:11.895Z,14.86
2019-05-20T19:22:41.682Z,14.84
2019-05-20T19:25:12.664Z,14.79
2019-05-20T19:27:42.127Z,14.81
2019-05-20T19:30:12.018Z,14.78
2019-05-20T19:32:41.749Z,14.88
2019-05-20T19:35:11.437Z,14.93
2019-05-20T19:37:40.882Z,14.90
2019-05-20T19:40:10.884Z,14.97
2019-05-20T19:42:40.583Z,14.96
2019-05-20T19:45:10.606Z,15.01
2019-05-20T19:47:40.050Z,15.06
2019-05-20T19:50:10.339Z,15.01
2019-05-20T19:52:40.039Z,14.92
2019-05-20T19:55:09.952Z,14.90
2019-05-20T19:57:39.394Z,14.97
2019-05-20T20:00:09.748Z,15.02
2019-05-20T20:02:39.481Z,14.90
2019-05-20T20:05:09.366Z,14.97
2019-05-20T20:07:39.315Z,14.93
2019-05-20T20:10:08.909Z,15.03
2019-05-20T20:12:38.627Z,15.04
2019-05-20T20:15:08.859Z,15.10
2019-05-20T20:17:38.555Z,14.99
2019-05-20T20:20:08.469Z,14.99
2019-05-20T20:22:37.906Z,15.01
2019-05-20T20:25:07.907Z,14.88
2019-05-20T20:27:37.617Z,14.89
2019-05-20T20:30:07.970Z,14.81
2019-05-20T20:32:38.789Z,14.82
2019-05-20T20:35:09.637Z,14.87
2019-05-20T20:37:39.451Z,14.75
2019-05-20T20:40:09.724Z,14.79
2019-05-20T20:42:39.166Z,14.68
2019-05-20T20:45:08.893Z,14.64
2019-05-20T20:47:42.126Z,14.68
2019-05-20T20:50:09.895Z,14.59
2019-05-20T20:52:39.416Z,14.55
2019-05-20T20:55:09.415Z,14.46
2019-05-20T20:57:38.864Z,14.49
2019-05-20T21:00:11.846Z,14.45
2019-05-20T21:02:52.655Z,14.50
2019-05-20T21:05:13.011Z,14.43
2019-05-20T21:07:42.473Z,14.42
2019-05-20T21:10:12.041Z,14.42
2019-05-20T21:12:41.782Z,14.44
2019-05-20T21:15:11.753Z,14.51
2019-05-20T21:17:41.713Z,14.48
2019-05-20T21:20:11.384Z,14.36
2019-05-20T21:22:41.136Z,14.44
2019-05-20T21:25:11.463Z,14.42
2019-05-20T21:27:40.913Z,14.33
2019-05-20T21:30:10.890Z,14.22
2019-05-20T21:32:40.729Z,14.22
2019-05-20T21:35:11.068Z,14.30
2019-05-20T21:37:40.925Z,14.28
2019-05-20T21:40:10.817Z,14.20
2019-05-20T21:42:40.264Z,14.32
2019-05-20T21:45:09.773Z,14.26
2019-05-20T21:47:39.232Z,14.24
2019-05-20T21:50:09.858Z,14.30
2019-05-20T21:52:39.323Z,14.25
2019-05-20T21:55:09.306Z,14.22
2019-05-20T21:57:39.013Z,14.23
2019-05-20T22:00:11.300Z,14.22
2019-05-20T22:02:41.072Z,14.24
2019-05-20T22:05:10.906Z,14.21
2019-05-20T22:07:40.367Z,14.10
2019-05-20T22:10:10.841Z,14.22
2019-05-20T22:12:40.634Z,14.21
2019-05-20T22:15:10.235Z,14.17
2019-05-20T22:17:39.685Z,14.20
2019-05-20T22:20:09.432Z,14.11
2019-05-20T22:22:46.247Z,14.18
2019-05-20T22:25:16.044Z,14.19
2019-05-20T22:27:45.509Z,14.20
2019-05-20T22:30:15.285Z,14.23
2019-05-20T22:32:44.732Z,14.22
2019-05-20T22:35:14.587Z,14.23
2019-05-20T22:37:44.032Z,14.16
2019-05-20T22:40:14.004Z,14.10
2019-05-20T22:42:43.448Z,14.15
2019-05-20T22:45:13.023Z,14.23
2019-05-20T22:47:42.466Z,14.19
2019-05-20T22:50:12.715Z,14.11
2019-05-20T22:52:42.434Z,14.14
2019-05-20T22:55:11.870Z,14.10
2019-05-20T22:57:41.314Z,14.18
2019-05-20T23:00:12.071Z,14.12
2019-05-20T23:02:41.521Z,14.14
2019-05-20T23:05:11.391Z,14.10
2019-05-20T23:07:41.101Z,14.09
2019-05-20T23:10:12.911Z,14.17
2019-05-20T23:12:42.354Z,14.11
2019-05-20T23:15:12.170Z,14.15
2019-05-20T23:17:41.947Z,14.15
2019-05-20T23:20:11.931Z,14.11
2019-05-20T23:22:41.373Z,14.07
2019-05-20T23:25:11.095Z,14.05
2019-05-20T23:27:40.545Z,14.11
2019-05-20T23:30:10.633Z,14.08
2019-05-20T23:32:40.340Z,14.05
2019-05-20T23:35:09.953Z,14.14
2019-05-20T23:37:39.755Z,14.12
2019-05-20T23:40:09.498Z,14.17
2019-05-20T23:42:38.934Z,14.19
2019-05-20T23:45:09.884Z,14.23
2019-05-20T23:47:39.620Z,14.28
2019-05-20T23:50:09.395Z,14.21
2019-05-20T23:52:38.841Z,14.17
2019-05-20T23:55:09.125Z,14.13
2019-05-20T23:57:38.992Z,14.16
